createdAt,value
2023-03-04T00:01:11.880Z,2.01
2023-03-04T00:06:14.168Z,2.02
2023-03-04T00:11:18.285Z,2.05
2023-03-04T00:16:20.696Z,2.05
2023-03-04T00:21:24.764Z,2.06
2023-03-04T00:26:27.034Z,2.11
2023-03-04T00:31:31.236Z,2.15
2023-03-04T00:36:35.341Z,2.17
2023-03-04T00:41:39.521Z,2.21
2023-03-04T00:46:43.668Z,2.23
2023-03-04T00:51:47.852Z,2.27
2023-03-04T00:56:52.005Z,2.37
2023-03-04T01:01:56.150Z,2.39
2023-03-04T01:07:00.356Z,2.39
2023-03-04T01:12:04.484Z,2.39
2023-03-04T01:17:08.683Z,2.41
2023-03-04T01:22:12.847Z,2.49
2023-03-04T01:27:17.004Z,2.51
2023-03-04T01:32:21.234Z,2.53
2023-03-04T01:37:25.294Z,2.57
2023-03-04T01:42:29.511Z,2.65
2023-03-04T01:52:37.784Z,2.73
2023-03-04T01:57:41.998Z,2.79
2023-03-04T02:02:46.172Z,2.80
2023-03-04T02:07:50.333Z,2.86
2023-03-04T02:12:54.495Z,3.00
2023-03-04T02:17:56.769Z,3.12
2023-03-04T02:23:00.957Z,3.12
2023-03-04T02:33:07.381Z,3.13
2023-03-04T02:38:09.658Z,3.14
2023-03-04T02:43:13.798Z,3.15
2023-03-04T02:48:17.954Z,3.13
2023-03-04T02:53:22.109Z,3.13
2023-03-04T02:58:26.287Z,3.24
2023-03-04T03:03:30.464Z,3.33
2023-03-04T03:08:34.627Z,3.35
2023-03-04T03:13:38.760Z,3.34
2023-03-04T03:18:42.928Z,3.35
2023-03-04T03:23:47.075Z,3.33
2023-03-04T03:28:51.280Z,3.32
2023-03-04T03:33:55.442Z,3.32
2023-03-04T03:38:59.593Z,3.32
2023-03-04T03:44:03.739Z,3.33
2023-03-04T03:49:07.938Z,3.32
2023-03-04T03:54:12.081Z,3.35
2023-03-04T03:59:16.234Z,3.32
2023-03-04T04:04:20.412Z,3.33
2023-03-04T04:09:24.580Z,3.36
2023-03-04T04:14:28.744Z,3.37
2023-03-04T04:19:32.941Z,3.36
2023-03-04T04:24:35.164Z,3.39
2023-03-04T04:29:39.368Z,3.39
2023-03-04T04:34:41.637Z,3.42
2023-03-04T04:39:45.794Z,3.42
2023-03-04T04:44:49.959Z,3.43
2023-03-04T04:49:54.149Z,3.46
2023-03-04T04:54:58.243Z,3.44
2023-03-04T05:05:06.621Z,3.52
2023-03-04T05:10:10.754Z,3.49
2023-03-04T05:15:14.906Z,3.50
2023-03-04T05:20:19.109Z,3.52
2023-03-04T05:25:23.232Z,3.53
2023-03-04T05:30:27.441Z,3.53
2023-03-04T05:35:31.631Z,3.55
2023-03-04T05:40:35.743Z,3.57
2023-03-04T05:45:39.958Z,3.54
2023-03-04T05:50:44.085Z,3.56
2023-03-04T05:55:48.227Z,3.58
2023-03-04T06:00:52.394Z,3.57
2023-03-04T06:05:56.554Z,3.57
2023-03-04T06:11:00.787Z,3.55
2023-03-04T06:16:04.963Z,3.56
2023-03-04T06:21:09.072Z,3.56
2023-03-04T06:26:11.453Z,3.60
2023-03-04T06:31:15.558Z,3.60
2023-03-04T06:36:19.690Z,3.62
2023-03-04T06:41:23.858Z,3.63
2023-03-04T06:46:30.407Z,3.64
2023-03-04T06:51:32.195Z,3.66
2023-03-04T06:56:38.378Z,3.73
2023-03-04T07:01:40.520Z,3.80
2023-03-04T07:06:44.652Z,3.82
2023-03-04T07:11:48.913Z,3.82
2023-03-04T07:16:52.983Z,3.84
2023-03-04T07:21:57.170Z,3.88
2023-03-04T07:27:01.352Z,3.91
2023-03-04T07:32:05.569Z,3.94
2023-03-04T07:37:09.640Z,3.98
2023-03-04T07:42:13.778Z,4.02
2023-03-04T07:47:17.967Z,4.03
2023-03-04T07:52:22.104Z,4.06
2023-03-04T07:57:26.292Z,4.12
2023-03-04T08:02:30.480Z,4.20
2023-03-04T08:07:34.600Z,4.24
2023-03-04T08:12:36.968Z,4.32
2023-03-04T08:17:41.061Z,4.36
2023-03-04T08:22:43.326Z,4.38
2023-03-04T08:27:47.479Z,4.62
2023-03-04T08:32:49.810Z,4.76
2023-03-04T08:37:53.948Z,4.93
2023-03-04T08:42:58.068Z,5.06
2023-03-04T08:48:02.289Z,5.27
2023-03-04T08:53:06.394Z,5.38
2023-03-04T08:58:10.576Z,5.38
2023-03-04T09:03:14.868Z,5.52
2023-03-04T09:08:18.917Z,5.59
2023-03-04T09:13:25.847Z,5.65
2023-03-04T09:18:27.232Z,5.68
2023-03-04T09:23:31.431Z,5.69
2023-03-04T09:28:35.579Z,5.65
2023-03-04T09:33:39.733Z,5.63
2023-03-04T09:38:43.905Z,5.61
2023-03-04T09:43:48.066Z,5.58
2023-03-04T09:48:52.199Z,5.69
2023-03-04T09:53:56.355Z,5.73
2023-03-04T09:59:00.533Z,5.77
2023-03-04T10:04:04.672Z,5.67
2023-03-04T10:09:08.855Z,5.54
2023-03-04T10:14:13.018Z,5.64
2023-03-04T10:19:15.317Z,5.56
2023-03-04T10:24:19.471Z,5.57
2023-03-04T10:29:23.593Z,5.56
2023-03-04T10:34:27.796Z,5.57
2023-03-04T10:39:31.943Z,5.51
2023-03-04T10:44:36.082Z,5.61
2023-03-04T10:49:40.265Z,5.84
2023-03-04T10:54:44.416Z,5.82
2023-03-04T10:59:48.570Z,5.81
2023-03-04T11:04:52.749Z,5.74
2023-03-04T11:09:58.439Z,5.69
2023-03-04T11:15:01.062Z,5.62
2023-03-04T11:20:05.222Z,5.53
2023-03-04T11:25:09.386Z,5.49
2023-03-04T11:30:13.548Z,5.50
2023-03-04T11:35:17.746Z,5.62
2023-03-04T11:40:23.616Z,5.85
2023-03-04T11:45:30.120Z,6.14
2023-03-04T11:50:30.226Z,6.01
2023-03-04T11:55:34.370Z,6.01
2023-03-04T12:00:38.538Z,6.24
2023-03-04T12:05:40.814Z,6.55
2023-03-04T12:10:44.968Z,6.66
2023-03-04T12:15:47.308Z,6.67
2023-03-04T12:20:51.407Z,6.47
2023-03-04T12:25:53.816Z,6.35
2023-03-04T12:30:57.913Z,6.52
2023-03-04T12:36:02.129Z,6.51
2023-03-04T12:41:06.171Z,6.47
2023-03-04T12:46:10.384Z,6.39
2023-03-04T12:51:14.480Z,6.39
2023-03-04T12:56:18.647Z,6.42
2023-03-04T13:01:22.833Z,6.29
2023-03-04T13:06:29.025Z,6.23
2023-03-04T13:11:31.149Z,6.20
2023-03-04T13:16:35.412Z,6.30
2023-03-04T13:21:39.564Z,6.31
2023-03-04T13:26:43.642Z,6.34
2023-03-04T13:31:47.899Z,6.43
2023-03-04T13:36:51.981Z,6.44
2023-03-04T13:41:56.171Z,6.41
2023-03-04T13:47:00.380Z,6.39
2023-03-04T13:52:02.559Z,6.31
2023-03-04T13:57:06.689Z,6.32
2023-03-04T14:02:10.893Z,6.24
2023-03-04T14:07:15.047Z,6.23
2023-03-04T14:12:17.342Z,6.45
2023-03-04T14:17:21.467Z,6.56
2023-03-04T14:22:23.757Z,6.50
2023-03-04T14:32:32.157Z,6.34
2023-03-04T14:37:36.247Z,6.32
2023-03-04T14:42:40.399Z,6.31
2023-03-04T14:47:44.573Z,6.43
2023-03-04T14:52:48.717Z,6.46
2023-03-04T14:57:52.872Z,6.46
2023-03-04T15:02:57.087Z,6.44
2023-03-04T15:08:01.213Z,6.36
2023-03-04T15:13:05.421Z,6.30
2023-03-04T15:18:09.560Z,6.27
2023-03-04T15:23:13.712Z,6.24
2023-03-04T15:28:17.863Z,6.22
2023-03-04T15:33:22.007Z,6.20
2023-03-04T15:38:26.224Z,6.17
2023-03-04T15:43:30.372Z,6.17
2023-03-04T15:48:34.520Z,6.20
2023-03-04T15:53:38.705Z,6.20
2023-03-04T15:58:42.924Z,6.20
2023-03-04T16:08:51.198Z,6.20
2023-03-04T16:13:55.343Z,6.16
2023-03-04T16:18:57.613Z,6.16
2023-03-04T16:24:01.793Z,6.14
2023-03-04T16:29:05.911Z,6.17
2023-03-04T16:34:08.200Z,6.11
2023-03-04T16:39:12.400Z,6.06
2023-03-04T16:44:16.525Z,6.01
2023-03-04T16:49:20.661Z,5.98
2023-03-04T16:54:24.884Z,5.94
2023-03-04T16:59:28.999Z,5.90
2023-03-04T17:04:33.173Z,5.87
2023-03-04T17:09:37.371Z,5.85
2023-03-04T17:14:41.512Z,5.86
2023-03-04T17:19:45.667Z,5.83
2023-03-04T17:24:49.823Z,5.79
2023-03-04T17:29:53.997Z,5.75
2023-03-04T17:34:58.168Z,5.71
2023-03-04T17:40:02.391Z,5.71
2023-03-04T17:45:06.465Z,5.68
2023-03-04T17:50:10.650Z,5.66
2023-03-04T17:55:14.834Z,5.62
2023-03-04T18:00:19.026Z,5.59
2023-03-04T18:05:23.176Z,5.58
2023-03-04T18:10:27.310Z,5.58
2023-03-04T18:15:31.477Z,5.57
2023-03-04T18:20:34.860Z,5.55
2023-03-04T18:25:39.036Z,5.49
2023-03-04T18:30:43.185Z,5.44
2023-03-04T18:35:47.389Z,5.39
2023-03-04T18:40:51.495Z,5.33
2023-03-04T18:45:55.716Z,5.31
2023-03-04T18:50:59.857Z,5.21
2023-03-04T18:56:03.981Z,5.16
2023-03-04T19:01:08.192Z,5.11
2023-03-04T19:06:12.298Z,5.04
2023-03-04T19:11:16.503Z,4.99
2023-03-04T19:16:20.679Z,4.98
2023-03-04T19:21:24.826Z,4.95
2023-03-04T19:26:28.948Z,4.96
2023-03-04T19:31:33.160Z,4.93
2023-03-04T19:36:37.323Z,4.92
2023-03-04T19:41:41.495Z,4.88
2023-03-04T19:46:45.635Z,4.89
2023-03-04T19:51:49.802Z,4.90
2023-03-04T19:56:53.945Z,4.88
2023-03-04T20:01:58.141Z,4.88
2023-03-04T20:07:00.419Z,4.87
2023-03-04T20:12:04.549Z,4.92
2023-03-04T20:17:06.859Z,4.91
2023-03-04T20:22:10.972Z,4.87
2023-03-04T20:27:15.141Z,4.84
2023-03-04T20:32:19.373Z,4.80
2023-03-04T20:37:23.514Z,4.78
2023-03-04T20:42:27.640Z,4.72
2023-03-04T20:47:31.855Z,4.69
2023-03-04T20:52:35.979Z,4.66
2023-03-04T20:57:40.177Z,4.62
2023-03-04T21:02:44.307Z,4.58
2023-03-04T21:07:48.591Z,4.54
2023-03-04T21:12:52.605Z,4.49
2023-03-04T21:23:00.973Z,4.39
2023-03-04T21:28:05.100Z,4.38
2023-03-04T21:33:09.323Z,4.35
2023-03-04T21:38:13.424Z,4.32
2023-03-04T21:43:17.599Z,4.27
2023-03-04T21:48:21.810Z,4.24
2023-03-04T21:53:25.962Z,4.20
2023-03-04T21:58:30.131Z,4.16
2023-03-04T22:03:34.322Z,4.15
2023-03-04T22:08:36.591Z,4.11
2023-03-04T22:13:40.751Z,4.08
2023-03-04T22:18:42.993Z,4.05
2023-03-04T22:23:47.200Z,4.03
2023-03-04T22:28:49.436Z,4.02
2023-03-04T22:33:53.781Z,3.98
2023-03-04T22:38:57.811Z,3.95
2023-03-04T22:44:01.982Z,3.90
2023-03-04T22:49:06.093Z,3.86
2023-03-04T22:54:10.289Z,3.81
2023-03-04T22:59:14.476Z,3.78
2023-03-04T23:04:18.644Z,3.76
2023-03-04T23:09:22.774Z,3.73
2023-03-04T23:14:26.961Z,3.68
2023-03-04T23:19:31.095Z,3.66
2023-03-04T23:24:35.265Z,3.64
2023-03-04T23:29:39.408Z,3.58
2023-03-04T23:34:43.602Z,3.57
2023-03-04T23:39:47.722Z,3.56
2023-03-04T23:44:51.929Z,3.56
2023-03-04T23:49:56.044Z,3.56
2023-03-04T23:55:00.254Z,3.56
